sensor_id;sensor_type;location;lat;lon;timestamp;temperature;humidity
15997;DHT22;8103;51.340;12.326;2023-11-19T00:00:33;5.60;99.90
15997;DHT22;8103;51.340;12.326;2023-11-19T00:02:59;5.70;99.90
15997;DHT22;8103;51.340;12.326;2023-11-19T00:05:26;5.60;99.90
15997;DHT22;8103;51.340;12.326;2023-11-19T00:07:54;5.60;99.90
15997;DHT22;8103;51.340;12.326;2023-11-19T00:10:21;5.60;99.90
15997;DHT22;8103;51.340;12.326;2023-11-19T00:12:50;5.60;99.90
15997;DHT22;8103;51.340;12.326;2023-11-19T00:15:17;5.60;99.90
15997;DHT22;8103;51.340;12.326;2023-11-19T00:17:46;5.50;99.90
15997;DHT22;8103;51.340;12.326;2023-11-19T00:20:16;5.50;99.90
15997;DHT22;8103;51.340;12.326;2023-11-19T00:22:43;5.40;99.90
15997;DHT22;8103;51.340;12.326;2023-11-19T00:25:13;5.40;99.90
15997;DHT22;8103;51.340;12.326;2023-11-19T00:27:40;5.40;99.90
15997;DHT22;8103;51.340;12.326;2023-11-19T00:30:07;5.30;99.90
15997;DHT22;8103;51.340;12.326;2023-11-19T00:32:37;5.30;99.90
15997;DHT22;8103;51.340;12.326;2023-11-19T00:35:06;5.20;99.90
15997;DHT22;8103;51.340;12.326;2023-11-19T00:37:34;5.20;99.90
15997;DHT22;8103;51.340;12.326;2023-11-19T00:40:01;5.10;99.90
15997;DHT22;8103;51.340;12.326;2023-11-19T00:42:27;5.10;99.90
15997;DHT22;8103;51.340;12.326;2023-11-19T00:44:54;5.10;99.90
15997;DHT22;8103;51.340;12.326;2023-11-19T00:47:21;5.10;99.90
15997;DHT22;8103;51.340;12.326;2023-11-19T00:49:48;5.10;99.90
15997;DHT22;8103;51.340;12.326;2023-11-19T00:52:18;5.10;99.90
15997;DHT22;8103;51.340;12.326;2023-11-19T04:03:07;5.70;99.90
15997;DHT22;8103;51.340;12.326;2023-11-19T04:12:56;5.80;99.90
15997;DHT22;8103;51.340;12.326;2023-11-19T04:15:23;5.80;99.90
15997;DHT22;8103;51.340;12.326;2023-11-19T04:17:50;5.80;99.90
15997;DHT22;8103;51.340;12.326;2023-11-19T04:20:17;5.90;99.90
15997;DHT22;8103;51.340;12.326;2023-11-19T04:22:44;5.90;99.90
15997;DHT22;8103;51.340;12.326;2023-11-19T04:25:11;5.90;99.90
15997;DHT22;8103;51.340;12.326;2023-11-19T04:27:37;6.00;99.90
15997;DHT22;8103;51.340;12.326;2023-11-19T04:30:05;6.00;99.90
15997;DHT22;8103;51.340;12.326;2023-11-19T04:32:37;6.00;99.90
15997;DHT22;8103;51.340;12.326;2023-11-19T04:35:04;6.00;99.90
15997;DHT22;8103;51.340;12.326;2023-11-19T04:37:30;6.10;99.90
15997;DHT22;8103;51.340;12.326;2023-11-19T04:39:57;6.10;99.90
15997;DHT22;8103;51.340;12.326;2023-11-19T04:42:24;6.10;99.90
15997;DHT22;8103;51.340;12.326;2023-11-19T04:44:51;6.10;99.90
15997;DHT22;8103;51.340;12.326;2023-11-19T04:47:18;6.10;99.90
15997;DHT22;8103;51.340;12.326;2023-11-19T04:49:44;6.10;99.90
15997;DHT22;8103;51.340;12.326;2023-11-19T04:52:11;6.20;99.90
15997;DHT22;8103;51.340;12.326;2023-11-19T04:54:42;6.20;99.90
15997;DHT22;8103;51.340;12.326;2023-11-19T04:57:10;6.20;99.90
15997;DHT22;8103;51.340;12.326;2023-11-19T04:59:40;6.20;99.90
15997;DHT22;8103;51.340;12.326;2023-11-19T05:02:06;6.20;99.90
15997;DHT22;8103;51.340;12.326;2023-11-19T05:04:34;6.20;99.90
15997;DHT22;8103;51.340;12.326;2023-11-19T05:07:01;6.20;99.90
15997;DHT22;8103;51.340;12.326;2023-11-19T05:09:28;6.20;99.90
15997;DHT22;8103;51.340;12.326;2023-11-19T05:11:55;6.20;99.90
15997;DHT22;8103;51.340;12.326;2023-11-19T05:14:21;6.20;99.90
15997;DHT22;8103;51.340;12.326;2023-11-19T05:16:48;6.30;99.90
15997;DHT22;8103;51.340;12.326;2023-11-19T05:19:16;6.20;99.90
15997;DHT22;8103;51.340;12.326;2023-11-19T05:21:43;6.30;99.90
15997;DHT22;8103;51.340;12.326;2023-11-19T05:24:10;6.30;99.90
15997;DHT22;8103;51.340;12.326;2023-11-19T05:26:38;6.30;99.90
15997;DHT22;8103;51.340;12.326;2023-11-19T05:29:05;6.40;99.90
15997;DHT22;8103;51.340;12.326;2023-11-19T05:31:32;6.40;99.90
15997;DHT22;8103;51.340;12.326;2023-11-19T05:34:01;6.40;99.90
15997;DHT22;8103;51.340;12.326;2023-11-19T05:36:28;6.50;99.90
15997;DHT22;8103;51.340;12.326;2023-11-19T05:38:55;6.50;99.90
15997;DHT22;8103;51.340;12.326;2023-11-19T05:41:22;6.50;99.90
15997;DHT22;8103;51.340;12.326;2023-11-19T05:43:49;6.50;99.90
15997;DHT22;8103;51.340;12.326;2023-11-19T05:46:15;6.50;99.90
15997;DHT22;8103;51.340;12.326;2023-11-19T05:48:46;6.60;99.90
15997;DHT22;8103;51.340;12.326;2023-11-19T05:51:13;6.60;99.90
15997;DHT22;8103;51.340;12.326;2023-11-19T05:53:43;6.60;99.90
15997;DHT22;8103;51.340;12.326;2023-11-19T05:56:09;6.70;99.90
15997;DHT22;8103;51.340;12.326;2023-11-19T05:58:37;6.70;99.90
15997;DHT22;8103;51.340;12.326;2023-11-19T06:01:05;6.80;99.90
15997;DHT22;8103;51.340;12.326;2023-11-19T06:03:34;6.80;99.90
15997;DHT22;8103;51.340;12.326;2023-11-19T06:06:01;6.80;99.90
15997;DHT22;8103;51.340;12.326;2023-11-19T06:08:28;6.90;99.90
15997;DHT22;8103;51.340;12.326;2023-11-19T06:10:57;7.00;99.90
15997;DHT22;8103;51.340;12.326;2023-11-19T06:13:24;7.00;99.90
15997;DHT22;8103;51.340;12.326;2023-11-19T06:15:52;7.10;99.90
15997;DHT22;8103;51.340;12.326;2023-11-19T06:18:19;7.10;99.90
15997;DHT22;8103;51.340;12.326;2023-11-19T06:20:52;7.10;99.90
15997;DHT22;8103;51.340;12.326;2023-11-19T06:23:19;7.10;99.90
15997;DHT22;8103;51.340;12.326;2023-11-19T06:25:46;7.10;99.90
15997;DHT22;8103;51.340;12.326;2023-11-19T06:28:13;7.10;99.90
15997;DHT22;8103;51.340;12.326;2023-11-19T06:30:39;7.20;99.90
15997;DHT22;8103;51.340;12.326;2023-11-19T06:33:16;7.20;99.90
15997;DHT22;8103;51.340;12.326;2023-11-19T06:35:43;7.20;99.90
15997;DHT22;8103;51.340;12.326;2023-11-19T06:38:10;7.30;99.90
15997;DHT22;8103;51.340;12.326;2023-11-19T06:40:37;7.40;99.90
15997;DHT22;8103;51.340;12.326;2023-11-19T06:43:04;7.40;99.90
15997;DHT22;8103;51.340;12.326;2023-11-19T06:45:31;7.40;99.90
15997;DHT22;8103;51.340;12.326;2023-11-19T06:48:01;7.50;99.90
15997;DHT22;8103;51.340;12.326;2023-11-19T06:50:30;7.40;99.90
15997;DHT22;8103;51.340;12.326;2023-11-19T06:52:56;7.40;99.90
15997;DHT22;8103;51.340;12.326;2023-11-19T06:55:23;7.40;99.90
15997;DHT22;8103;51.340;12.326;2023-11-19T06:57:50;7.40;99.90
15997;DHT22;8103;51.340;12.326;2023-11-19T07:00:17;7.40;99.90
15997;DHT22;8103;51.340;12.326;2023-11-19T07:02:44;7.30;99.90
15997;DHT22;8103;51.340;12.326;2023-11-19T07:05:11;7.30;99.90
15997;DHT22;8103;51.340;12.326;2023-11-19T07:07:39;7.30;99.90
15997;DHT22;8103;51.340;12.326;2023-11-19T07:10:07;7.30;99.90
15997;DHT22;8103;51.340;12.326;2023-11-19T07:12:35;7.30;99.90
15997;DHT22;8103;51.340;12.326;2023-11-19T07:15:03;7.30;99.90
15997;DHT22;8103;51.340;12.326;2023-11-19T07:17:30;7.40;99.90
15997;DHT22;8103;51.340;12.326;2023-11-19T07:19:57;7.40;99.90
15997;DHT22;8103;51.340;12.326;2023-11-19T07:22:27;7.50;99.90
15997;DHT22;8103;51.340;12.326;2023-11-19T07:24:56;7.60;99.90
15997;DHT22;8103;51.340;12.326;2023-11-19T07:27:23;7.60;99.90
15997;DHT22;8103;51.340;12.326;2023-11-19T07:29:50;7.70;99.90
15997;DHT22;8103;51.340;12.326;2023-11-19T07:32:17;7.70;99.90
15997;DHT22;8103;51.340;12.326;2023-11-19T07:34:44;7.80;99.90
15997;DHT22;8103;51.340;12.326;2023-11-19T07:37:11;7.80;99.90
15997;DHT22;8103;51.340;12.326;2023-11-19T07:39:38;7.90;99.90
15997;DHT22;8103;51.340;12.326;2023-11-19T07:42:07;8.00;99.90
15997;DHT22;8103;51.340;12.326;2023-11-19T07:44:35;8.10;99.90
15997;DHT22;8103;51.340;12.326;2023-11-19T07:47:03;8.20;99.90
15997;DHT22;8103;51.340;12.326;2023-11-19T07:49:30;8.20;99.90
15997;DHT22;8103;51.340;12.326;2023-11-19T07:51:57;8.30;99.90
15997;DHT22;8103;51.340;12.326;2023-11-19T07:54:24;8.40;99.90
15997;DHT22;8103;51.340;12.326;2023-11-19T07:56:51;8.50;99.90
15997;DHT22;8103;51.340;12.326;2023-11-19T07:59:18;8.50;99.90
15997;DHT22;8103;51.340;12.326;2023-11-19T08:01:45;8.50;99.90
15997;DHT22;8103;51.340;12.326;2023-11-19T08:04:11;8.60;99.90
15997;DHT22;8103;51.340;12.326;2023-11-19T08:06:38;8.60;99.90
15997;DHT22;8103;51.340;12.326;2023-11-19T08:09:05;8.70;99.90
15997;DHT22;8103;51.340;12.326;2023-11-19T08:11:33;8.70;99.90
15997;DHT22;8103;51.340;12.326;2023-11-19T08:14:00;8.80;99.90
15997;DHT22;8103;51.340;12.326;2023-11-19T08:16:27;8.90;99.90
15997;DHT22;8103;51.340;12.326;2023-11-19T08:18:53;9.00;99.90
15997;DHT22;8103;51.340;12.326;2023-11-19T08:21:20;9.00;99.90
15997;DHT22;8103;51.340;12.326;2023-11-19T08:23:49;9.10;99.90
15997;DHT22;8103;51.340;12.326;2023-11-19T08:26:16;9.10;99.90
15997;DHT22;8103;51.340;12.326;2023-11-19T08:28:45;9.20;99.90
15997;DHT22;8103;51.340;12.326;2023-11-19T08:31:12;9.20;99.90
15997;DHT22;8103;51.340;12.326;2023-11-19T08:33:39;9.30;99.90
15997;DHT22;8103;51.340;12.326;2023-11-19T08:36:06;9.40;99.90
15997;DHT22;8103;51.340;12.326;2023-11-19T08:38:33;9.60;99.90
15997;DHT22;8103;51.340;12.326;2023-11-19T08:41:00;9.80;99.90
15997;DHT22;8103;51.340;12.326;2023-11-19T08:43:27;10.20;99.90
15997;DHT22;8103;51.340;12.326;2023-11-19T08:45:54;11.00;99.90
15997;DHT22;8103;51.340;12.326;2023-11-19T08:48:21;11.80;99.90
15997;DHT22;8103;51.340;12.326;2023-11-19T08:50:48;12.00;99.90
15997;DHT22;8103;51.340;12.326;2023-11-19T08:53:15;11.80;99.90
15997;DHT22;8103;51.340;12.326;2023-11-19T08:55:41;11.50;99.90
15997;DHT22;8103;51.340;12.326;2023-11-19T08:58:08;11.30;99.90
15997;DHT22;8103;51.340;12.326;2023-11-19T09:00:35;11.20;99.90
15997;DHT22;8103;51.340;12.326;2023-11-19T09:03:02;11.30;99.90
15997;DHT22;8103;51.340;12.326;2023-11-19T09:05:30;11.40;99.90
15997;DHT22;8103;51.340;12.326;2023-11-19T09:07:57;11.40;99.90
15997;DHT22;8103;51.340;12.326;2023-11-19T09:10:23;11.30;99.90
15997;DHT22;8103;51.340;12.326;2023-11-19T09:12:50;11.20;99.90
15997;DHT22;8103;51.340;12.326;2023-11-19T09:15:17;11.20;99.90
15997;DHT22;8103;51.340;12.326;2023-11-19T09:17:43;11.20;99.90
15997;DHT22;8103;51.340;12.326;2023-11-19T09:20:12;11.30;99.90
15997;DHT22;8103;51.340;12.326;2023-11-19T09:22:42;11.30;99.90
15997;DHT22;8103;51.340;12.326;2023-11-19T09:25:09;11.30;99.90
15997;DHT22;8103;51.340;12.326;2023-11-19T09:27:36;11.20;99.90
15997;DHT22;8103;51.340;12.326;2023-11-19T09:30:04;11.20;99.90
15997;DHT22;8103;51.340;12.326;2023-11-19T09:32:30;11.10;99.90
15997;DHT22;8103;51.340;12.326;2023-11-19T09:34:57;11.00;99.90
15997;DHT22;8103;51.340;12.326;2023-11-19T09:37:24;11.00;99.90
15997;DHT22;8103;51.340;12.326;2023-11-19T09:39:51;10.90;99.90
15997;DHT22;8103;51.340;12.326;2023-11-19T09:42:18;10.90;99.90
15997;DHT22;8103;51.340;12.326;2023-11-19T09:44:47;10.90;99.90
15997;DHT22;8103;51.340;12.326;2023-11-19T09:47:14;10.90;99.90
15997;DHT22;8103;51.340;12.326;2023-11-19T09:49:43;10.90;99.90
15997;DHT22;8103;51.340;12.326;2023-11-19T09:52:11;10.90;99.90
15997;DHT22;8103;51.340;12.326;2023-11-19T09:54:38;10.90;99.90
15997;DHT22;8103;51.340;12.326;2023-11-19T09:57:06;11.00;99.90
15997;DHT22;8103;51.340;12.326;2023-11-19T09:59:34;11.00;99.90
15997;DHT22;8103;51.340;12.326;2023-11-19T10:02:02;11.00;99.90
15997;DHT22;8103;51.340;12.326;2023-11-19T10:04:30;11.00;99.90
15997;DHT22;8103;51.340;12.326;2023-11-19T10:06:58;11.00;99.90
15997;DHT22;8103;51.340;12.326;2023-11-19T10:09:25;11.10;99.90
15997;DHT22;8103;51.340;12.326;2023-11-19T10:11:51;11.10;99.90
15997;DHT22;8103;51.340;12.326;2023-11-19T10:14:22;11.00;99.90
15997;DHT22;8103;51.340;12.326;2023-11-19T10:16:49;11.00;99.90
15997;DHT22;8103;51.340;12.326;2023-11-19T10:19:20;11.00;99.90
15997;DHT22;8103;51.340;12.326;2023-11-19T10:21:49;11.10;99.90
15997;DHT22;8103;51.340;12.326;2023-11-19T10:24:16;11.10;99.90
15997;DHT22;8103;51.340;12.326;2023-11-19T10:26:57;11.10;99.90
15997;DHT22;8103;51.340;12.326;2023-11-19T10:29:24;11.20;99.90
15997;DHT22;8103;51.340;12.326;2023-11-19T10:31:56;11.40;99.90
15997;DHT22;8103;51.340;12.326;2023-11-19T10:34:27;11.50;99.90
15997;DHT22;8103;51.340;12.326;2023-11-19T10:36:54;11.70;99.90
15997;DHT22;8103;51.340;12.326;2023-11-19T10:39:21;11.90;99.90
15997;DHT22;8103;51.340;12.326;2023-11-19T10:41:48;12.00;99.90
15997;DHT22;8103;51.340;12.326;2023-11-19T10:44:33;12.20;99.90
15997;DHT22;8103;51.340;12.326;2023-11-19T10:47:05;12.30;99.90
15997;DHT22;8103;51.340;12.326;2023-11-19T10:49:34;12.50;99.90
15997;DHT22;8103;51.340;12.326;2023-11-19T10:52:02;12.60;99.90
15997;DHT22;8103;51.340;12.326;2023-11-19T10:54:32;12.80;99.90
15997;DHT22;8103;51.340;12.326;2023-11-19T10:56:59;12.90;99.90
15997;DHT22;8103;51.340;12.326;2023-11-19T10:59:31;13.00;99.90
15997;DHT22;8103;51.340;12.326;2023-11-19T11:02:03;13.10;99.90
15997;DHT22;8103;51.340;12.326;2023-11-19T11:04:39;13.30;99.90
15997;DHT22;8103;51.340;12.326;2023-11-19T11:07:07;13.40;99.90
15997;DHT22;8103;51.340;12.326;2023-11-19T11:09:35;13.50;99.90
15997;DHT22;8103;51.340;12.326;2023-11-19T11:12:04;13.70;99.90
15997;DHT22;8103;51.340;12.326;2023-11-19T11:14:32;13.70;99.90
15997;DHT22;8103;51.340;12.326;2023-11-19T11:17:02;13.80;99.90
15997;DHT22;8103;51.340;12.326;2023-11-19T11:19:30;13.90;99.90
15997;DHT22;8103;51.340;12.326;2023-11-19T11:21:57;14.00;99.90
15997;DHT22;8103;51.340;12.326;2023-11-19T11:27:48;13.90;99.90
15997;DHT22;8103;51.340;12.326;2023-11-19T11:35:55;13.70;99.90
15997;DHT22;8103;51.340;12.326;2023-11-19T11:38:29;13.70;99.90
15997;DHT22;8103;51.340;12.326;2023-11-19T11:41:19;13.80;99.90
15997;DHT22;8103;51.340;12.326;2023-11-19T11:43:50;13.90;99.90
15997;DHT22;8103;51.340;12.326;2023-11-19T11:49:01;14.20;99.90
15997;DHT22;8103;51.340;12.326;2023-11-19T11:51:57;14.40;99.90
15997;DHT22;8103;51.340;12.326;2023-11-19T11:54:28;14.70;99.90
15997;DHT22;8103;51.340;12.326;2023-11-19T11:57:02;14.80;99.90
15997;DHT22;8103;51.340;12.326;2023-11-19T12:02:10;15.10;99.90
15997;DHT22;8103;51.340;12.326;2023-11-19T12:04:39;15.20;99.90
15997;DHT22;8103;51.340;12.326;2023-11-19T12:07:09;15.00;99.90
15997;DHT22;8103;51.340;12.326;2023-11-19T12:09:47;14.90;99.90
15997;DHT22;8103;51.340;12.326;2023-11-19T12:15:00;14.40;99.90
15997;DHT22;8103;51.340;12.326;2023-11-19T12:20:05;14.00;99.90
15997;DHT22;8103;51.340;12.326;2023-11-19T12:22:40;14.00;99.90
15997;DHT22;8103;51.340;12.326;2023-11-19T12:25:09;14.10;99.90
15997;DHT22;8103;51.340;12.326;2023-11-19T12:27:36;14.20;99.90
15997;DHT22;8103;51.340;12.326;2023-11-19T12:30:04;14.40;99.90
15997;DHT22;8103;51.340;12.326;2023-11-19T12:32:42;14.60;99.90
15997;DHT22;8103;51.340;12.326;2023-11-19T12:35:09;14.80;99.90
15997;DHT22;8103;51.340;12.326;2023-11-19T12:37:49;14.90;99.90
15997;DHT22;8103;51.340;12.326;2023-11-19T12:40:24;15.10;99.90
15997;DHT22;8103;51.340;12.326;2023-11-19T12:42:53;15.10;99.90
15997;DHT22;8103;51.340;12.326;2023-11-19T12:45:20;14.80;99.90
15997;DHT22;8103;51.340;12.326;2023-11-19T12:47:48;14.60;99.90
15997;DHT22;8103;51.340;12.326;2023-11-19T12:50:16;14.60;99.90
15997;DHT22;8103;51.340;12.326;2023-11-19T12:52:56;14.40;99.90
15997;DHT22;8103;51.340;12.326;2023-11-19T12:55:26;14.30;99.90
15997;DHT22;8103;51.340;12.326;2023-11-19T12:57:55;14.30;99.90
15997;DHT22;8103;51.340;12.326;2023-11-19T13:00:24;14.20;99.90
15997;DHT22;8103;51.340;12.326;2023-11-19T13:02:53;14.10;99.90
15997;DHT22;8103;51.340;12.326;2023-11-19T13:05:32;14.00;99.90
15997;DHT22;8103;51.340;12.326;2023-11-19T13:10:27;13.80;99.90
15997;DHT22;8103;51.340;12.326;2023-11-19T13:13:23;13.90;99.90
15997;DHT22;8103;51.340;12.326;2023-11-19T13:15:50;14.00;99.90
15997;DHT22;8103;51.340;12.326;2023-11-19T13:18:17;14.10;99.90
15997;DHT22;8103;51.340;12.326;2023-11-19T13:20:44;14.20;99.90
15997;DHT22;8103;51.340;12.326;2023-11-19T13:23:13;14.30;99.90
15997;DHT22;8103;51.340;12.326;2023-11-19T13:25:42;14.60;99.90
15997;DHT22;8103;51.340;12.326;2023-11-19T13:28:13;14.70;99.90
15997;DHT22;8103;51.340;12.326;2023-11-19T13:30:39;14.50;99.90
15997;DHT22;8103;51.340;12.326;2023-11-19T13:33:06;14.40;99.90
15997;DHT22;8103;51.340;12.326;2023-11-19T13:35:33;14.50;99.90
15997;DHT22;8103;51.340;12.326;2023-11-19T13:38:00;14.30;99.90
15997;DHT22;8103;51.340;12.326;2023-11-19T13:40:30;14.20;99.90
15997;DHT22;8103;51.340;12.326;2023-11-19T13:42:57;14.10;99.90
15997;DHT22;8103;51.340;12.326;2023-11-19T13:45:24;14.00;99.90
15997;DHT22;8103;51.340;12.326;2023-11-19T13:47:51;13.90;99.90
15997;DHT22;8103;51.340;12.326;2023-11-19T13:50:18;13.70;99.90
15997;DHT22;8103;51.340;12.326;2023-11-19T13:52:45;13.60;99.90
15997;DHT22;8103;51.340;12.326;2023-11-19T13:55:13;13.40;99.90
15997;DHT22;8103;51.340;12.326;2023-11-19T13:57:41;13.30;99.90
15997;DHT22;8103;51.340;12.326;2023-11-19T14:00:10;13.20;99.90
15997;DHT22;8103;51.340;12.326;2023-11-19T14:02:40;13.20;99.90
15997;DHT22;8103;51.340;12.326;2023-11-19T14:05:10;13.30;99.90
15997;DHT22;8103;51.340;12.326;2023-11-19T14:07:40;13.70;99.90
15997;DHT22;8103;51.340;12.326;2023-11-19T14:10:08;13.80;99.90
15997;DHT22;8103;51.340;12.326;2023-11-19T14:12:38;14.10;99.90
15997;DHT22;8103;51.340;12.326;2023-11-19T14:15:05;14.20;99.90
15997;DHT22;8103;51.340;12.326;2023-11-19T14:17:33;14.20;99.90
15997;DHT22;8103;51.340;12.326;2023-11-19T14:20:01;14.00;99.90
15997;DHT22;8103;51.340;12.326;2023-11-19T14:22:32;14.00;99.90
15997;DHT22;8103;51.340;12.326;2023-11-19T14:24:59;13.90;99.90
15997;DHT22;8103;51.340;12.326;2023-11-19T14:27:26;13.70;99.90
15997;DHT22;8103;51.340;12.326;2023-11-19T14:29:52;13.60;99.90
15997;DHT22;8103;51.340;12.326;2023-11-19T14:32:22;13.50;99.90
15997;DHT22;8103;51.340;12.326;2023-11-19T14:34:49;13.40;99.90
15997;DHT22;8103;51.340;12.326;2023-11-19T14:37:15;13.30;99.90
15997;DHT22;8103;51.340;12.326;2023-11-19T14:39:42;13.20;99.90
15997;DHT22;8103;51.340;12.326;2023-11-19T14:42:12;13.10;99.90
15997;DHT22;8103;51.340;12.326;2023-11-19T14:44:38;13.00;99.90
15997;DHT22;8103;51.340;12.326;2023-11-19T14:47:05;12.80;99.90
15997;DHT22;8103;51.340;12.326;2023-11-19T14:49:34;12.80;99.90
15997;DHT22;8103;51.340;12.326;2023-11-19T14:52:01;12.80;99.90
15997;DHT22;8103;51.340;12.326;2023-11-19T14:54:31;12.70;99.90
15997;DHT22;8103;51.340;12.326;2023-11-19T14:56:58;12.70;99.90
15997;DHT22;8103;51.340;12.326;2023-11-19T14:59:26;12.70;99.90
15997;DHT22;8103;51.340;12.326;2023-11-19T15:01:53;12.60;99.90
15997;DHT22;8103;51.340;12.326;2023-11-19T15:04:23;12.60;99.90
15997;DHT22;8103;51.340;12.326;2023-11-19T15:06:50;12.60;99.90
15997;DHT22;8103;51.340;12.326;2023-11-19T15:09:16;12.50;99.90
15997;DHT22;8103;51.340;12.326;2023-11-19T15:11:44;12.50;99.90
15997;DHT22;8103;51.340;12.326;2023-11-19T15:14:15;12.40;99.90
15997;DHT22;8103;51.340;12.326;2023-11-19T15:16:46;12.40;99.90
15997;DHT22;8103;51.340;12.326;2023-11-19T15:19:13;12.40;99.90
15997;DHT22;8103;51.340;12.326;2023-11-19T15:21:41;12.40;99.90
15997;DHT22;8103;51.340;12.326;2023-11-19T15:24:09;12.40;99.90
15997;DHT22;8103;51.340;12.326;2023-11-19T15:26:36;12.30;99.90
15997;DHT22;8103;51.340;12.326;2023-11-19T15:29:04;12.30;99.90
15997;DHT22;8103;51.340;12.326;2023-11-19T15:31:31;12.20;99.90
15997;DHT22;8103;51.340;12.326;2023-11-19T15:33:58;12.20;99.90
15997;DHT22;8103;51.340;12.326;2023-11-19T15:36:28;12.10;99.90
15997;DHT22;8103;51.340;12.326;2023-11-19T15:38:55;12.10;99.90
15997;DHT22;8103;51.340;12.326;2023-11-19T15:41:21;12.10;99.90
15997;DHT22;8103;51.340;12.326;2023-11-19T15:43:54;12.00;99.90
15997;DHT22;8103;51.340;12.326;2023-11-19T15:46:24;12.00;99.90
15997;DHT22;8103;51.340;12.326;2023-11-19T15:48:51;12.00;99.90
15997;DHT22;8103;51.340;12.326;2023-11-19T15:51:18;12.00;99.90
15997;DHT22;8103;51.340;12.326;2023-11-19T15:53:45;12.00;99.90
15997;DHT22;8103;51.340;12.326;2023-11-19T15:56:13;12.00;99.90
15997;DHT22;8103;51.340;12.326;2023-11-19T15:58:42;11.90;99.90
15997;DHT22;8103;51.340;12.326;2023-11-19T16:01:09;12.00;99.90
15997;DHT22;8103;51.340;12.326;2023-11-19T16:03:37;12.00;99.90
15997;DHT22;8103;51.340;12.326;2023-11-19T16:06:10;12.00;99.90
15997;DHT22;8103;51.340;12.326;2023-11-19T16:08:37;11.90;99.90
15997;DHT22;8103;51.340;12.326;2023-11-19T16:11:09;11.90;99.90
15997;DHT22;8103;51.340;12.326;2023-11-19T16:13:36;11.90;99.90
15997;DHT22;8103;51.340;12.326;2023-11-19T16:16:03;11.90;99.90
15997;DHT22;8103;51.340;12.326;2023-11-19T16:18:33;11.80;99.90
15997;DHT22;8103;51.340;12.326;2023-11-19T16:21:00;11.80;99.90
15997;DHT22;8103;51.340;12.326;2023-11-19T16:23:28;12.10;99.90
15997;DHT22;8103;51.340;12.326;2023-11-19T16:25:55;12.50;99.90
15997;DHT22;8103;51.340;12.326;2023-11-19T16:28:21;13.00;99.90
15997;DHT22;8103;51.340;12.326;2023-11-19T16:30:50;13.40;99.90
15997;DHT22;8103;51.340;12.326;2023-11-19T16:33:17;13.60;99.90
15997;DHT22;8103;51.340;12.326;2023-11-19T16:35:50;13.80;99.90
15997;DHT22;8103;51.340;12.326;2023-11-19T16:38:19;13.60;99.90
15997;DHT22;8103;51.340;12.326;2023-11-19T16:40:46;13.20;99.90
15997;DHT22;8103;51.340;12.326;2023-11-19T16:47:04;12.30;99.90
15997;DHT22;8103;51.340;12.326;2023-11-19T16:49:34;12.00;99.90
15997;DHT22;8103;51.340;12.326;2023-11-19T16:52:00;11.70;99.90
15997;DHT22;8103;51.340;12.326;2023-11-19T16:54:31;11.60;99.90
15997;DHT22;8103;51.340;12.326;2023-11-19T16:56:58;11.60;99.90
15997;DHT22;8103;51.340;12.326;2023-11-19T16:59:24;11.50;99.90
15997;DHT22;8103;51.340;12.326;2023-11-19T17:01:51;11.50;99.90
15997;DHT22;8103;51.340;12.326;2023-11-19T17:04:18;11.40;99.90
15997;DHT22;8103;51.340;12.326;2023-11-19T17:06:45;11.40;99.90
15997;DHT22;8103;51.340;12.326;2023-11-19T17:09:13;11.40;99.90
15997;DHT22;8103;51.340;12.326;2023-11-19T17:11:40;11.40;99.90
15997;DHT22;8103;51.340;12.326;2023-11-19T17:14:10;11.40;99.90
15997;DHT22;8103;51.340;12.326;2023-11-19T17:16:37;11.40;99.90
15997;DHT22;8103;51.340;12.326;2023-11-19T17:19:05;11.30;99.90
15997;DHT22;8103;51.340;12.326;2023-11-19T17:21:32;11.30;99.90
15997;DHT22;8103;51.340;12.326;2023-11-19T17:23:59;11.30;99.90
15997;DHT22;8103;51.340;12.326;2023-11-19T17:26:26;11.20;99.90
15997;DHT22;8103;51.340;12.326;2023-11-19T17:29:11;11.20;99.90
15997;DHT22;8103;51.340;12.326;2023-11-19T17:31:38;11.20;99.90
15997;DHT22;8103;51.340;12.326;2023-11-19T17:34:05;11.10;99.90
15997;DHT22;8103;51.340;12.326;2023-11-19T17:36:31;11.10;99.90
15997;DHT22;8103;51.340;12.326;2023-11-19T17:38:58;11.00;99.90
15997;DHT22;8103;51.340;12.326;2023-11-19T17:41:26;11.00;99.90
15997;DHT22;8103;51.340;12.326;2023-11-19T17:43:53;11.00;99.90
15997;DHT22;8103;51.340;12.326;2023-11-19T17:46:20;11.00;99.90
15997;DHT22;8103;51.340;12.326;2023-11-19T17:48:47;11.00;99.90
15997;DHT22;8103;51.340;12.326;2023-11-19T17:51:14;11.00;99.90
15997;DHT22;8103;51.340;12.326;2023-11-19T17:53:43;11.00;99.90
15997;DHT22;8103;51.340;12.326;2023-11-19T17:56:10;11.00;99.90
15997;DHT22;8103;51.340;12.326;2023-11-19T18:02:25;11.00;99.90
15997;DHT22;8103;51.340;12.326;2023-11-19T18:05:08;11.00;99.90
15997;DHT22;8103;51.340;12.326;2023-11-19T18:07:36;11.00;99.90
15997;DHT22;8103;51.340;12.326;2023-11-19T18:10:05;11.00;99.90
15997;DHT22;8103;51.340;12.326;2023-11-19T18:12:34;11.00;99.90
15997;DHT22;8103;51.340;12.326;2023-11-19T18:15:00;10.90;99.90
15997;DHT22;8103;51.340;12.326;2023-11-19T18:17:27;10.90;99.90
15997;DHT22;8103;51.340;12.326;2023-11-19T18:19:54;10.90;99.90
15997;DHT22;8103;51.340;12.326;2023-11-19T18:22:21;10.90;99.90
15997;DHT22;8103;51.340;12.326;2023-11-19T18:24:48;10.90;99.90
15997;DHT22;8103;51.340;12.326;2023-11-19T18:27:15;10.90;99.90
15997;DHT22;8103;51.340;12.326;2023-11-19T18:29:42;10.90;99.90
15997;DHT22;8103;51.340;12.326;2023-11-19T18:32:10;10.90;99.90
15997;DHT22;8103;51.340;12.326;2023-11-19T18:34:39;11.00;99.90
15997;DHT22;8103;51.340;12.326;2023-11-19T18:37:07;11.00;99.90
15997;DHT22;8103;51.340;12.326;2023-11-19T18:39:36;11.00;99.90
15997;DHT22;8103;51.340;12.326;2023-11-19T18:42:06;11.00;99.90
15997;DHT22;8103;51.340;12.326;2023-11-19T18:44:33;11.00;99.90
15997;DHT22;8103;51.340;12.326;2023-11-19T18:47:00;11.00;99.90
15997;DHT22;8103;51.340;12.326;2023-11-19T18:49:27;11.00;99.90
15997;DHT22;8103;51.340;12.326;2023-11-19T18:51:54;11.10;99.90
15997;DHT22;8103;51.340;12.326;2023-11-19T18:54:21;11.10;99.90
15997;DHT22;8103;51.340;12.326;2023-11-19T18:56:49;11.10;99.90
15997;DHT22;8103;51.340;12.326;2023-11-19T18:59:16;11.10;99.90
15997;DHT22;8103;51.340;12.326;2023-11-19T19:01:42;11.10;99.90
15997;DHT22;8103;51.340;12.326;2023-11-19T19:04:11;11.10;99.90
15997;DHT22;8103;51.340;12.326;2023-11-19T19:06:38;11.20;99.90
15997;DHT22;8103;51.340;12.326;2023-11-19T19:09:05;11.10;99.90
15997;DHT22;8103;51.340;12.326;2023-11-19T19:11:31;11.10;99.90
15997;DHT22;8103;51.340;12.326;2023-11-19T19:14:00;11.10;99.90
15997;DHT22;8103;51.340;12.326;2023-11-19T19:16:28;11.10;99.90
15997;DHT22;8103;51.340;12.326;2023-11-19T19:18:55;11.10;99.90
15997;DHT22;8103;51.340;12.326;2023-11-19T19:21:22;11.10;99.90
15997;DHT22;8103;51.340;12.326;2023-11-19T19:23:49;11.10;99.90
15997;DHT22;8103;51.340;12.326;2023-11-19T19:26:16;11.10;99.90